Time;durP1;ratioP1;P1;durP2;ratioP2;P2;SDS_P1;SDS_P2;PMS_P1;PMS_P2;Temp;Humidity;BMP_temperature;BMP_pressure;BME280_temperature;BME280_humidity;BME280_pressure;Samples;Min_cycle;Max_cycle;Signal;HPM_P1;HPM_P2
2024/03/26 00:02:18;;;;;;;0.40;0.40;;;;;;;6.75;50.68;96409.53;5028990;28;20049;-65
2024/03/26 00:04:44;;;;;;;0.40;0.40;;;;;;;7.02;51.15;96458.09;5022763;28;20053;-65
2024/03/26 00:07:10;;;;;;;0.40;0.40;;;;;;;7.16;50.70;96507.16;5022467;28;20096;-66
2024/03/26 00:09:36;;;;;;;0.40;0.40;;;;;;;6.70;51.09;96437.31;5021788;28;20436;-66
2024/03/26 00:12:01;;;;;;;0.40;0.40;;;;;;;6.61;52.30;96431.25;5021517;28;20259;-67
2024/03/26 00:14:27;;;;;;;0.40;0.40;;;;;;;6.96;53.32;96509.09;5021581;28;20056;-66
2024/03/26 00:16:53;;;;;;;0.40;0.40;;;;;;;6.34;54.15;96459.69;5021451;28;20064;-65
2024/03/26 00:19:19;;;;;;;0.30;0.30;;;;;;;6.59;54.93;96516.09;5022058;28;20046;-66
2024/03/26 00:21:45;;;;;;;0.40;0.40;;;;;;;6.44;54.21;96503.16;5004850;28;20049;-64
2024/03/26 00:24:10;;;;;;;0.40;0.40;;;;;;;6.41;54.04;96498.38;5021301;28;20049;-65
2024/03/26 00:26:36;;;;;;;0.30;0.30;;;;;;;6.15;54.93;96467.88;5021277;28;20049;-65
2024/03/26 00:29:02;;;;;;;0.40;0.40;;;;;;;6.31;54.79;96501.66;5021408;28;20195;-65
2024/03/26 00:31:33;;;;;;;0.30;0.30;;;;;;;6.08;55.23;96478.72;5021893;28;20460;-65
2024/03/26 00:34:03;;;;;;;0.30;0.30;;;;;;;6.15;55.72;96489.88;5021684;28;20060;-66
2024/03/26 00:36:32;;;;;;;0.30;0.30;;;;;;;6.06;55.67;96497.50;5021490;28;20237;-65
2024/03/26 00:38:58;;;;;;;0.30;0.30;;;;;;;5.55;56.38;96449.03;5022314;28;20061;-65
2024/03/26 00:41:24;;;;;;;0.30;0.30;;;;;;;5.89;57.24;96486.88;5022040;28;20064;-65
2024/03/26 00:43:50;;;;;;;0.30;0.30;;;;;;;5.87;57.38;96495.47;5021713;28;20053;-65
2024/03/26 00:46:15;;;;;;;0.30;0.30;;;;;;;4.82;59.39;96491.69;5020531;28;20061;-65
2024/03/26 00:48:41;;;;;;;0.30;0.30;;;;;;;5.07;59.68;96510.47;5010811;28;20064;-64
2024/03/26 00:51:07;;;;;;;0.30;0.30;;;;;;;5.13;60.66;96519.25;4984788;28;20086;-65
2024/03/26 00:53:34;;;;;;;0.30;0.30;;;;;;;5.15;60.03;96522.44;5001360;28;20089;-65
2024/03/26 00:55:59;;;;;;;0.30;0.30;;;;;;;4.87;60.26;96450.28;5005792;28;20067;-67
2024/03/26 00:58:25;;;;;;;0.30;0.30;;;;;;;5.13;60.57;96502.78;5020184;28;20520;-65
2024/03/26 01:00:51;;;;;;;0.30;0.30;;;;;;;5.04;60.09;96504.88;5004751;28;20516;-66
2024/03/26 01:03:16;;;;;;;0.20;0.20;;;;;;;5.04;61.00;96518.59;5021299;28;20586;-66
2024/03/26 01:05:57;;;;;;;0.30;0.30;;;;;;;4.94;62.25;96517.13;4998758;28;20054;-65
2024/03/26 01:08:23;;;;;;;0.30;0.30;;;;;;;4.31;63.77;96428.25;5020767;28;20053;-65
2024/03/26 01:10:49;;;;;;;0.30;0.30;;;;;;;4.96;62.60;96546.97;5020928;28;20443;-66
2024/03/26 01:13:15;;;;;;;0.30;0.30;;;;;;;4.92;62.38;96530.41;5021436;28;20053;-66
2024/03/26 01:15:42;;;;;;;0.30;0.30;;;;;;;5.03;62.28;96519.72;5004886;28;20138;-65
2024/03/26 01:18:09;;;;;;;0.30;0.30;;;;;;;5.06;61.20;96530.03;5004446;28;20530;-66
2024/03/26 01:20:35;;;;;;;0.30;0.30;;;;;;;4.99;60.64;96513.34;5021000;28;20053;-65
2024/03/26 01:23:01;;;;;;;0.30;0.30;;;;;;;5.04;60.85;96529.56;5020708;28;20424;-66
2024/03/26 01:25:27;;;;;;;0.30;0.30;;;;;;;4.57;61.96;96483.50;5020456;28;20103;-66
2024/03/26 01:27:53;;;;;;;0.30;0.30;;;;;;;4.52;62.92;96500.16;5004560;28;20057;-65
2024/03/26 01:30:20;;;;;;;0.20;0.20;;;;;;;4.87;63.39;96533.38;5019926;28;20538;-65
2024/03/26 01:32:46;;;;;;;0.30;0.30;;;;;;;4.85;64.61;96535.69;5020417;28;20677;-65
2024/03/26 01:35:11;;;;;;;0.30;0.30;;;;;;;4.42;64.27;96505.34;5004127;28;20064;-65
2024/03/26 01:37:37;;;;;;;0.30;0.30;;;;;;;4.69;62.74;96510.88;5004312;28;20137;-65
2024/03/26 01:40:04;;;;;;;0.30;0.30;;;;;;;4.73;64.27;96532.16;5004669;28;20508;-65
2024/03/26 01:42:29;;;;;;;0.25;0.25;;;;;;;4.35;63.15;96466.72;5024365;28;20057;-65
2024/03/26 01:44:55;;;;;;;0.30;0.30;;;;;;;4.76;63.35;96542.44;5024514;28;20127;-66
2024/03/26 01:47:21;;;;;;;0.30;0.30;;;;;;;4.69;64.33;96538.31;5024138;28;20119;-67
2024/03/26 01:49:48;;;;;;;0.30;0.30;;;;;;;4.68;63.79;96547.69;5005347;28;20066;-65
2024/03/26 01:52:15;;;;;;;0.30;0.30;;;;;;;4.07;62.81;96433.75;5004740;28;20054;-66
2024/03/26 01:54:43;;;;;;;0.30;0.30;;;;;;;4.81;62.61;96544.94;5004555;28;20053;-65
2024/03/26 01:57:10;;;;;;;0.30;0.30;;;;;;;2.65;62.40;96231.59;5018949;28;20100;-66
2024/03/26 01:59:38;;;;;;;0.30;0.30;;;;;;;4.51;64.02;96553.44;5024684;28;20052;-65
2024/03/26 02:02:04;;;;;;;0.30;0.30;;;;;;;4.18;66.99;96544.50;5024610;28;20046;-67
2024/03/26 02:04:30;;;;;;;0.30;0.30;;;;;;;3.79;67.72;96476.66;5024351;28;20076;-65
2024/03/26 02:06:55;;;;;;;0.30;0.30;;;;;;;3.43;66.39;96430.03;5007444;28;20428;-65
2024/03/26 02:09:21;;;;;;;0.30;0.30;;;;;;;3.95;68.68;96561.72;5024652;28;20228;-68
2024/03/26 02:11:47;;;;;;;0.30;0.30;;;;;;;3.23;68.46;96433.66;5023682;28;20115;-66
2024/03/26 02:14:15;;;;;;;0.30;0.30;;;;;;;4.23;68.73;96573.63;5024129;28;20119;-66
2024/03/26 02:16:41;;;;;;;0.30;0.30;;;;;;;3.68;68.55;96497.41;5023461;28;20061;-65
2024/03/26 02:19:08;;;;;;;0.30;0.30;;;;;;;4.19;67.04;96572.69;5007696;28;20441;-65
2024/03/26 02:21:34;;;;;;;0.30;0.30;;;;;;;3.41;67.04;96476.13;5023907;28;20064;-67
2024/03/26 02:23:59;;;;;;;0.30;0.30;;;;;;;4.03;65.88;96594.47;5024088;28;20068;-65
2024/03/26 02:26:25;;;;;;;0.30;0.30;;;;;;;3.78;66.83;96573.66;4999084;28;20429;-66
2024/03/26 02:28:54;;;;;;;0.20;0.20;;;;;;;3.95;67.74;96600.84;5001170;28;20061;-65
2024/03/26 02:31:20;;;;;;;0.30;0.30;;;;;;;3.38;66.32;96520.59;5015245;28;20440;-65
2024/03/26 02:33:46;;;;;;;0.28;0.28;;;;;;;3.79;67.01;96580.75;5023589;28;20057;-65
2024/03/26 02:36:12;;;;;;;0.30;0.30;;;;;;;3.97;66.51;96609.53;5006836;28;20523;-65
2024/03/26 02:38:37;;;;;;;0.30;0.30;;;;;;;3.67;67.38;96608.06;5023643;28;20107;-65
2024/03/26 02:41:04;;;;;;;0.20;0.20;;;;;;;3.78;68.07;96600.25;5023388;28;20053;-64
2024/03/26 02:43:31;;;;;;;0.30;0.30;;;;;;;3.40;68.70;96627.81;5024699;28;20061;-65
2024/03/26 02:45:57;;;;;;;0.28;0.28;;;;;;;3.03;69.86;96571.28;5023741;28;20420;-66
2024/03/26 02:48:22;;;;;;;0.30;0.30;;;;;;;3.54;70.19;96627.53;5016614;28;20060;-65
2024/03/26 02:50:52;;;;;;;0.30;0.30;;;;;;;3.65;69.21;96623.25;4987161;28;20056;-66
2024/03/26 02:53:23;;;;;;;0.30;0.30;;;;;;;3.69;68.85;96624.97;5003611;28;20058;-65
2024/03/26 02:55:52;;;;;;;0.30;0.30;;;;;;;2.99;67.69;96548.47;5006400;28;20382;-65
2024/03/26 02:58:18;;;;;;;0.30;0.30;;;;;;;-0.05;67.68;96042.25;5023289;28;20097;-66
2024/03/26 03:00:44;;;;;;;0.30;0.30;;;;;;;3.74;67.62;96616.56;5015699;28;20058;-65
2024/03/26 03:03:10;;;;;;;0.30;0.30;;;;;;;3.75;67.65;96626.38;5023250;28;20049;-65
2024/03/26 03:05:36;;;;;;;0.30;0.30;;;;;;;3.29;67.43;96539.03;5006005;28;20370;-66
2024/03/26 03:08:02;;;;;;;0.30;0.30;;;;;;;3.74;68.08;96616.56;5022781;28;20060;-65
2024/03/26 03:10:27;;;;;;;0.22;0.22;;;;;;;3.53;68.72;96599.34;5022859;28;20072;-65
2024/03/26 03:12:53;;;;;;;0.30;0.30;;;;;;;3.50;68.86;96613.72;5022991;28;20045;-66
2024/03/26 03:15:19;;;;;;;0.20;0.20;;;;;;;3.64;67.96;96611.50;5022238;28;20053;-66
2024/03/26 03:17:45;;;;;;;0.20;0.20;;;;;;;3.66;68.41;96608.41;5005910;28;20049;-66
2024/03/26 03:20:11;;;;;;;0.30;0.30;;;;;;;3.68;67.85;96606.97;5022591;28;20057;-66
2024/03/26 03:22:42;;;;;;;0.30;0.30;;;;;;;3.74;67.92;96619.28;5022514;28;20585;-65
2024/03/26 03:25:08;;;;;;;0.30;0.30;;;;;;;3.68;69.35;96623.38;5022811;28;20646;-66
2024/03/26 03:27:34;;;;;;;0.20;0.20;;;;;;;3.07;69.98;96525.69;5006030;28;20058;-67
2024/03/26 03:30:00;;;;;;;0.30;0.30;;;;;;;3.38;70.33;96627.34;5006136;28;20112;-65
2024/03/26 03:32:26;;;;;;;0.30;0.30;;;;;;;3.49;69.83;96623.06;5022744;28;20468;-65
2024/03/26 03:34:55;;;;;;;0.28;0.28;;;;;;;3.04;69.41;96538.13;5022888;28;20436;-65
2024/03/26 03:37:21;;;;;;;0.30;0.30;;;;;;;2.93;69.35;96541.59;5022562;28;20060;-65
2024/03/26 03:39:47;;;;;;;0.30;0.30;;;;;;;-0.29;68.55;96020.25;5022352;28;20057;-65
2024/03/26 03:42:13;;;;;;;0.20;0.20;;;;;;;3.09;69.54;96572.69;5022872;28;20089;-65
2024/03/26 03:44:39;;;;;;;0.20;0.20;;;;;;;3.40;68.44;96611.38;5024965;28;20470;-66
2024/03/26 03:47:06;;;;;;;0.30;0.30;;;;;;;3.39;67.90;96611.72;5013330;28;20050;-65
2024/03/26 03:49:32;;;;;;;0.30;0.30;;;;;;;3.59;67.70;96638.28;5005511;28;20050;-66
2024/03/26 03:52:00;;;;;;;0.20;0.20;;;;;;;3.46;68.71;96634.69;5001993;28;20127;-65
2024/03/26 03:54:27;;;;;;;0.20;0.20;;;;;;;3.16;69.10;96580.34;5002001;28;20061;-66
2024/03/26 03:56:54;;;;;;;0.30;0.30;;;;;;;3.56;68.03;96652.63;4997204;28;20084;-65
2024/03/26 03:59:20;;;;;;;0.20;0.20;;;;;;;3.07;69.18;96651.53;5021729;28;20065;-64
2024/03/26 04:01:46;;;;;;;0.30;0.30;;;;;;;2.62;71.02;96546.66;5022306;28;20408;-66
2024/03/26 04:04:12;;;;;;;0.30;0.30;;;;;;;3.20;72.11;96664.19;5021802;28;20146;-65
2024/03/26 04:06:38;;;;;;;0.20;0.20;;;;;;;3.12;72.75;96659.56;5005266;28;20645;-64
2024/03/26 04:09:04;;;;;;;0.30;0.30;;;;;;;3.02;73.40;96690.84;5005711;28;20054;-66
2024/03/26 04:11:34;;;;;;;0.20;0.20;;;;;;;2.95;74.16;96687.03;5021657;28;20543;-65
2024/03/26 04:14:00;;;;;;;0.20;0.20;;;;;;;2.79;74.21;96658.63;5022345;28;20480;-67
2024/03/26 04:16:25;;;;;;;0.30;0.30;;;;;;;2.47;74.42;96599.13;5021752;28;20099;-65
2024/03/26 04:18:51;;;;;;;0.20;0.20;;;;;;;3.04;74.73;96663.97;5006038;28;20054;-65
2024/03/26 04:21:17;;;;;;;0.20;0.20;;;;;;;3.08;74.84;96664.88;5022799;28;20118;-64
2024/03/26 04:23:43;;;;;;;0.28;0.28;;;;;;;3.21;75.02;96695.09;5022059;28;20057;-65
2024/03/26 04:26:12;;;;;;;0.20;0.20;;;;;;;3.25;74.87;96691.34;4953692;28;242590;-66
2024/03/26 04:28:38;;;;;;;0.20;0.20;;;;;;;3.30;73.96;96699.38;4982030;28;20116;-65
2024/03/26 04:31:04;;;;;;;0.20;0.20;;;;;;;3.34;74.11;96704.97;4981806;28;20109;-66
2024/03/26 04:33:30;;;;;;;0.20;0.20;;;;;;;3.27;75.61;96705.53;4981672;28;20054;-66
2024/03/26 04:35:55;;;;;;;0.30;0.30;;;;;;;3.00;74.84;96654.03;4998134;28;20054;-65
2024/03/26 04:38:21;;;;;;;0.20;0.20;;;;;;;3.19;73.72;96665.31;4971863;28;20050;-66
2024/03/26 04:40:47;;;;;;;0.30;0.30;;;;;;;-3.80;72.05;95735.66;4946792;28;20058;-66
2024/03/26 04:43:13;;;;;;;0.30;0.30;;;;;;;3.40;71.66;96715.41;4962942;28;20059;-65
2024/03/26 04:45:39;;;;;;;0.20;0.20;;;;;;;3.08;72.49;96688.72;4962451;28;20536;-65
2024/03/26 04:48:05;;;;;;;0.30;0.30;;;;;;;2.79;71.71;96628.56;4957515;28;20126;-65
2024/03/26 04:50:31;;;;;;;0.30;0.30;;;;;;;3.21;70.81;96689.63;4942963;29;20059;-65
2024/03/26 04:52:56;;;;;;;0.25;0.25;;;;;;;3.42;71.11;96735.03;4942994;29;20055;-65
2024/03/26 04:55:22;;;;;;;0.30;0.30;;;;;;;3.44;70.83;96737.44;4943342;29;20458;-66
2024/03/26 04:57:48;;;;;;;0.22;0.22;;;;;;;3.36;72.15;96741.84;4961223;28;20625;-65
2024/03/26 05:00:14;;;;;;;0.30;0.30;;;;;;;3.26;71.98;96758.63;4962321;28;20059;-66
2024/03/26 05:02:41;;;;;;;0.30;0.30;;;;;;;3.40;70.84;96731.81;4961795;28;20938;-66
2024/03/26 05:05:08;;;;;;;0.30;0.30;;;;;;;3.61;69.48;96754.56;4946164;28;20055;-65
2024/03/26 05:07:35;;;;;;;0.28;0.28;;;;;;;3.47;70.44;96759.47;4962824;28;20055;-65
2024/03/26 05:10:01;;;;;;;0.25;0.25;;;;;;;3.64;70.44;96761.28;4962794;28;20369;-66
2024/03/26 05:12:27;;;;;;;0.30;0.30;;;;;;;3.61;70.52;96751.81;4962332;28;20625;-66
2024/03/26 05:14:53;;;;;;;0.30;0.30;;;;;;;3.87;69.42;96760.63;4961195;28;20487;-66
2024/03/26 05:17:18;;;;;;;0.30;0.30;;;;;;;3.58;69.03;96697.72;4961891;28;20055;-66
2024/03/26 05:19:44;;;;;;;0.30;0.30;;;;;;;4.14;69.56;96756.56;4946668;28;20042;-65
2024/03/26 05:22:10;;;;;;;0.30;0.30;;;;;;;3.41;68.56;96618.47;4962203;28;20630;-65
2024/03/26 05:24:38;;;;;;;0.30;0.30;;;;;;;3.76;68.79;96674.53;4961896;28;20055;-65
2024/03/26 05:27:05;;;;;;;0.30;0.30;;;;;;;4.51;68.61;96747.31;4945692;28;20113;-65
2024/03/26 05:29:31;;;;;;;0.30;0.30;;;;;;;4.68;66.91;96767.13;4961840;28;20054;-65
2024/03/26 05:31:57;;;;;;;0.30;0.30;;;;;;;4.59;65.75;96733.53;4961323;28;20113;-65
2024/03/26 05:34:23;;;;;;;0.30;0.30;;;;;;;4.88;65.42;96764.66;4945635;28;20321;-65
2024/03/26 05:36:49;;;;;;;0.30;0.30;;;;;;;4.09;65.15;96614.25;4961707;28;20066;-65
2024/03/26 05:39:16;;;;;;;0.30;0.30;;;;;;;5.18;64.35;96752.34;4936853;28;20138;-66
2024/03/26 05:41:42;;;;;;;0.30;0.30;;;;;;;4.83;63.58;96680.63;4973595;28;20522;-66
2024/03/26 05:44:07;;;;;;;0.30;0.30;;;;;;;4.95;62.32;96696.31;4961517;28;20059;-66
2024/03/26 05:46:34;;;;;;;0.30;0.30;;;;;;;5.08;61.54;96709.69;4961635;28;20117;-66
2024/03/26 05:49:00;;;;;;;0.30;0.30;;;;;;;5.81;62.20;96748.88;4949874;28;20086;-67
2024/03/26 05:51:27;;;;;;;0.30;0.30;;;;;;;5.59;60.86;96703.47;4942658;29;20051;-68
2024/03/26 05:53:53;;;;;;;0.30;0.30;;;;;;;5.71;60.16;96699.88;4942785;29;20114;-66
2024/03/26 05:56:19;;;;;;;0.30;0.30;;;;;;;6.10;60.42;96724.63;4949206;28;20298;-66
2024/03/26 05:58:45;;;;;;;0.30;0.30;;;;;;;6.17;59.05;96715.78;4962359;28;20058;-67
2024/03/26 06:01:11;;;;;;;0.30;0.30;;;;;;;6.12;58.80;96699.53;4961944;28;20065;-67
2024/03/26 06:03:37;;;;;;;0.30;0.30;;;;;;;6.75;58.80;96739.78;4946419;28;20405;-66
2024/03/26 06:06:03;;;;;;;0.30;0.30;;;;;;;6.66;57.54;96692.38;4961414;28;20459;-65
2024/03/26 06:08:29;;;;;;;0.30;0.30;;;;;;;6.99;57.48;96706.59;4961208;28;20564;-65
2024/03/26 06:10:55;;;;;;;0.40;0.40;;;;;;;6.99;57.05;96679.06;4961610;28;20423;-67
2024/03/26 06:13:21;;;;;;;0.30;0.30;;;;;;;7.47;56.96;96739.28;4961284;28;20086;-66
2024/03/26 06:15:46;;;;;;;0.40;0.40;;;;;;;5.72;57.99;96462.44;4959366;28;20493;-66
2024/03/26 06:18:12;;;;;;;0.40;0.40;;;;;;;7.52;57.27;96674.84;4959934;28;20051;-66
2024/03/26 06:20:38;;;;;;;0.30;0.30;;;;;;;8.08;56.08;96758.78;4959426;28;20351;-65
2024/03/26 06:23:04;;;;;;;0.38;0.38;;;;;;;8.26;55.63;96742.66;4951439;28;20054;-66
2024/03/26 06:25:30;;;;;;;0.40;0.40;;;;;;;8.35;55.00;96727.47;4962684;28;20364;-65
2024/03/26 06:27:56;;;;;;;0.40;0.40;;;;;;;8.51;56.49;96749.47;4944386;28;20182;-68
2024/03/26 06:30:22;;;;;;;0.40;0.40;;;;;;;8.34;57.63;96791.31;4956571;28;20050;-70
2024/03/26 06:32:51;;;;;;;0.40;0.40;;;;;;;8.13;56.41;96741.94;4967819;28;20046;-67
2024/03/26 06:35:17;;;;;;;0.40;0.40;;;;;;;8.29;56.39;96741.91;4964366;28;20058;-66
2024/03/26 06:37:44;;;;;;;0.40;0.40;;;;;;;5.03;54.45;96173.94;4966999;28;20313;-67
2024/03/26 06:40:10;;;;;;;0.40;0.40;;;;;;;8.39;54.53;96752.38;4947866;28;20058;-70
2024/03/26 06:42:37;;;;;;;0.40;0.40;;;;;;;7.71;55.17;96755.59;4949699;28;20061;-70
2024/03/26 06:45:04;;;;;;;0.40;0.40;;;;;;;8.23;54.17;96748.91;4962977;28;20054;-66
2024/03/26 06:47:30;;;;;;;0.30;0.30;;;;;;;7.33;53.86;96554.34;4945590;28;20489;-68
2024/03/26 06:49:55;;;;;;;0.40;0.40;;;;;;;8.71;53.49;96738.03;4947376;28;20054;-67
2024/03/26 06:52:21;;;;;;;0.40;0.40;;;;;;;9.02;52.80;96767.44;4961661;28;20069;-68
2024/03/26 06:54:47;;;;;;;0.40;0.40;;;;;;;9.50;52.02;96763.91;4961113;28;20147;-73
2024/03/26 06:57:13;;;;;;;0.40;0.40;;;;;;;8.97;50.70;96648.94;4974610;28;20054;-73
2024/03/26 06:59:38;;;;;;;0.43;0.43;;;;;;;9.69;49.98;96727.88;4964702;28;20173;-64
2024/03/26 07:02:05;;;;;;;0.50;0.50;;;;;;;8.72;47.80;96551.09;4965039;28;20046;-68
2024/03/26 07:04:31;;;;;;;0.47;0.47;;;;;;;10.12;47.64;96757.81;4961612;28;20058;-71
2024/03/26 07:06:57;;;;;;;0.40;0.40;;;;;;;9.73;47.87;96727.94;4965914;28;20057;-69
2024/03/26 07:09:23;;;;;;;0.40;0.40;;;;;;;10.24;47.14;96752.03;4953414;28;20054;-69
2024/03/26 07:11:48;;;;;;;0.50;0.50;;;;;;;10.60;46.59;96756.88;4955291;28;20077;-71
2024/03/26 07:14:18;;;;;;;0.50;0.50;;;;;;;9.93;46.32;96627.84;4946157;28;20052;-72
2024/03/26 07:16:44;;;;;;;0.50;0.50;;;;;;;10.98;45.96;96752.94;4944497;28;20125;-63
2024/03/26 07:19:09;;;;;;;0.60;0.60;;;;;;;10.33;45.43;96613.34;4942951;29;20043;-68
2024/03/26 07:21:37;;;;;;;0.60;0.60;;;;;;;10.58;45.06;96620.72;4952453;28;20141;-69
2024/03/26 07:24:03;;;;;;;0.60;0.60;;;;;;;11.05;44.15;96722.50;4963855;28;20086;-66
2024/03/26 07:26:29;;;;;;;0.50;0.50;;;;;;;11.52;43.37;96702.34;4944170;28;20521;-63
2024/03/26 07:28:56;;;;;;;0.57;0.57;;;;;;;11.93;41.82;96734.38;4944770;28;20169;-66
2024/03/26 07:31:22;;;;;;;0.57;0.57;;;;;;;12.33;41.40;96758.44;4950958;28;20065;-65
2024/03/26 07:33:48;;;;;;;0.60;0.60;;;;;;;11.60;41.32;96615.22;4947275;28;20051;-70
2024/03/26 07:36:14;;;;;;;0.50;0.50;;;;;;;11.79;42.98;96706.53;4956480;28;20074;-70
2024/03/26 07:38:40;;;;;;;0.52;0.52;;;;;;;12.06;43.24;96755.09;4944551;28;20549;-71
2024/03/26 07:41:07;;;;;;;0.50;0.50;;;;;;;10.51;43.49;96487.72;4943880;28;20055;-70
2024/03/26 07:43:33;;;;;;;0.60;0.60;;;;;;;11.36;43.10;96621.41;4943822;29;20051;-70
2024/03/26 07:45:59;;;;;;;0.50;0.50;;;;;;;12.24;43.25;96717.09;4929312;28;20057;-64
2024/03/26 07:48:25;;;;;;;0.52;0.52;;;;;;;11.93;40.91;96678.88;4944792;28;20134;-70
2024/03/26 07:50:51;;;;;;;0.60;0.60;;;;;;;12.37;40.14;96729.47;4945301;28;20677;-74
2024/03/26 07:53:17;;;;;;;0.50;0.50;;;;;;;11.81;40.41;96616.16;4950353;28;20063;-70
2024/03/26 07:55:42;;;;;;;0.60;0.60;;;;;;;12.76;39.46;96724.88;4927446;28;20059;-66
2024/03/26 07:58:08;;;;;;;0.50;0.50;;;;;;;11.25;40.15;96412.59;4948820;28;20059;-71
2024/03/26 08:00:35;;;;;;;0.60;0.60;;;;;;;13.03;40.59;96715.06;4942762;28;20126;-67
2024/03/26 08:03:01;;;;;;;0.60;0.60;;;;;;;13.25;39.40;96672.16;4943034;28;20047;-69
2024/03/26 08:05:26;;;;;;;0.60;0.60;;;;;;;13.44;39.37;96705.16;4923402;29;20195;-67
2024/03/26 08:07:53;;;;;;;0.60;0.60;;;;;;;13.67;37.46;96699.97;4965430;28;20312;-70
2024/03/26 08:10:19;;;;;;;0.70;0.70;;;;;;;13.55;37.06;96708.75;4944216;28;20059;-64
2024/03/26 08:12:45;;;;;;;0.60;0.60;;;;;;;12.22;36.36;96450.13;4957436;28;20078;-62
2024/03/26 08:15:11;;;;;;;0.60;0.60;;;;;;;13.01;36.50;96653.47;4942342;28;20228;-64
2024/03/26 08:17:38;;;;;;;0.60;0.60;;;;;;;13.24;36.37;96698.41;4942743;28;20530;-62
2024/03/26 08:20:05;;;;;;;0.60;0.60;;;;;;;13.52;35.08;96637.19;4924412;29;20059;-63
2024/03/26 08:22:32;;;;;;;0.60;0.60;;;;;;;14.27;35.15;96690.78;4941912;28;20546;-63
2024/03/26 08:24:57;;;;;;;0.70;0.70;;;;;;;13.79;35.46;96589.41;4938633;28;20060;-63
2024/03/26 08:27:24;;;;;;;0.60;0.60;;;;;;;14.51;36.22;96648.09;4942924;28;20499;-62
2024/03/26 08:29:51;;;;;;;0.70;0.70;;;;;;;15.19;35.66;96667.59;4930791;28;20117;-63
2024/03/26 08:32:16;;;;;;;0.70;0.70;;;;;;;15.84;34.46;96694.59;4974473;28;20055;-69
2024/03/26 08:34:42;;;;;;;0.70;0.70;;;;;;;15.12;33.14;96567.22;4943350;28;20101;-64
2024/03/26 08:37:08;;;;;;;0.65;0.65;;;;;;;14.57;34.69;96558.06;4953876;28;20059;-72
2024/03/26 08:39:34;;;;;;;0.60;0.60;;;;;;;15.53;35.03;96681.72;4940845;29;20573;-62
2024/03/26 08:42:00;;;;;;;0.80;0.80;;;;;;;15.61;34.74;96677.66;4951681;28;20061;-69
2024/03/26 08:44:26;;;;;;;0.60;0.60;;;;;;;15.21;33.08;96577.13;4958421;28;20059;-65
2024/03/26 08:46:52;;;;;;;0.70;0.70;;;;;;;15.99;32.96;96682.09;4935024;28;20054;-63
2024/03/26 08:49:17;;;;;;;0.70;0.70;;;;;;;15.93;32.74;96675.34;4943420;28;20094;-65
2024/03/26 08:51:43;;;;;;;0.80;0.80;;;;;;;16.08;33.17;96690.78;4943524;28;20059;-66
2024/03/26 08:54:09;;;;;;;0.77;0.77;;;;;;;16.03;32.59;96685.63;4960136;28;20054;-68
2024/03/26 08:56:35;;;;;;;0.70;0.70;;;;;;;14.94;33.62;96583.28;4950597;28;20128;-68
2024/03/26 08:59:00;;;;;;;0.70;0.70;;;;;;;15.32;33.43;96606.50;4943344;28;20047;-70
2024/03/26 09:01:26;;;;;;;0.70;0.70;;;;;;;15.73;33.84;96695.94;4949149;28;20085;-72
2024/03/26 09:03:52;;;;;;;0.70;0.70;;;;;;;13.99;34.56;96651.84;4944969;28;20150;-68
2024/03/26 09:06:18;;;;;;;0.60;0.60;;;;;;;13.17;34.78;96609.38;4926907;29;20216;-71
2024/03/26 09:08:43;;;;;;;0.60;0.60;;;;;;;14.33;34.70;96650.94;4921709;29;20555;-71
2024/03/26 09:11:09;;;;;;;0.60;0.60;;;;;;;14.81;33.38;96645.53;4942573;28;20056;-69
2024/03/26 09:13:39;;;;;;;0.70;0.70;;;;;;;15.82;33.13;96688.63;4960380;28;20070;-66
2024/03/26 09:16:07;;;;;;;0.70;0.70;;;;;;;15.70;32.94;96686.34;4944295;28;20050;-68
2024/03/26 09:18:33;;;;;;;0.70;0.70;;;;;;;16.16;32.31;96675.53;4933402;28;20058;-65
2024/03/26 09:20:59;;;;;;;0.63;0.63;;;;;;;15.37;31.80;96561.41;4944862;28;20050;-65
2024/03/26 09:23:24;;;;;;;0.60;0.60;;;;;;;14.45;33.23;96566.09;4937261;28;20047;-66
2024/03/26 09:25:50;;;;;;;0.80;0.80;;;;;;;16.18;33.33;96692.69;4928627;28;20047;-71
2024/03/26 09:28:16;;;;;;;0.70;0.70;;;;;;;15.16;33.64;96572.75;4930825;29;20130;-70
2024/03/26 09:30:42;;;;;;;0.70;0.70;;;;;;;16.42;32.89;96688.81;4939840;28;20506;-68
2024/03/26 09:33:08;;;;;;;0.70;0.70;;;;;;;15.97;32.18;96695.69;4940414;28;20070;-69
2024/03/26 09:35:34;;;;;;;0.70;0.70;;;;;;;15.90;33.50;96684.56;4921751;28;20576;-71
2024/03/26 09:38:00;;;;;;;0.70;0.70;;;;;;;15.61;32.94;96538.06;4943676;28;20055;-71
2024/03/26 09:40:26;;;;;;;0.73;0.73;;;;;;;15.87;33.19;96682.59;4941363;28;20047;-70
2024/03/26 09:42:52;;;;;;;0.70;0.70;;;;;;;15.48;33.04;96689.72;4960802;28;20463;-70
2024/03/26 09:45:19;;;;;;;0.70;0.70;;;;;;;16.07;32.55;96677.22;4942388;28;20074;-67
2024/03/26 09:47:48;;;;;;;0.70;0.70;;;;;;;16.23;32.36;96630.72;4966515;28;20537;-66
2024/03/26 09:50:14;;;;;;;0.70;0.70;;;;;;;15.56;32.66;96647.38;4927744;29;20056;-65
2024/03/26 09:52:51;;;;;;;0.70;0.70;;;;;;;16.29;32.06;96673.81;4944152;28;20066;-69
2024/03/26 09:55:20;;;;;;;0.73;0.73;;;;;;;15.56;33.30;96588.75;4939024;28;20641;-68
2024/03/26 09:57:46;;;;;;;0.70;0.70;;;;;;;16.78;31.49;96666.03;4951235;28;20063;-69
2024/03/26 10:00:13;;;;;;;0.70;0.70;;;;;;;16.57;31.32;96584.00;4942345;28;20090;-66
2024/03/26 10:02:39;;;;;;;0.70;0.70;;;;;;;16.53;32.09;96664.34;4961726;28;20065;-65
2024/03/26 10:05:08;;;;;;;0.73;0.73;;;;;;;15.50;33.64;96631.50;4965445;28;20521;-64
2024/03/26 10:07:34;;;;;;;0.70;0.70;;;;;;;14.67;33.46;96483.91;4959748;28;20058;-65
2024/03/26 10:10:01;;;;;;;0.80;0.80;;;;;;;15.92;33.51;96659.81;4944680;29;20051;-66
2024/03/26 10:12:27;;;;;;;0.70;0.70;;;;;;;15.60;33.02;96676.06;4958878;28;20055;-65
2024/03/26 10:14:53;;;;;;;0.70;0.70;;;;;;;14.80;32.40;96471.06;4963610;28;20058;-65
2024/03/26 10:17:19;;;;;;;0.70;0.70;;;;;;;14.36;32.02;96353.97;4964652;28;20898;-64
2024/03/26 10:19:46;;;;;;;0.70;0.70;;;;;;;15.50;33.83;96654.63;4949214;28;20072;-69
2024/03/26 10:22:15;;;;;;;0.70;0.70;;;;;;;16.38;32.90;96646.13;4957663;28;20429;-65
2024/03/26 10:24:42;;;;;;;0.70;0.70;;;;;;;15.47;33.33;96532.63;4963283;28;20053;-64
2024/03/26 10:27:08;;;;;;;0.80;0.80;;;;;;;16.89;32.66;96649.88;4961734;28;20063;-64
2024/03/26 10:29:36;;;;;;;0.77;0.77;;;;;;;15.18;33.16;96497.81;4945386;29;20574;-64
2024/03/26 10:32:03;;;;;;;0.70;0.70;;;;;;;14.97;32.88;96470.09;4942001;28;20125;-71
2024/03/26 10:34:32;;;;;;;0.70;0.70;;;;;;;15.53;33.11;96613.91;4964510;28;20062;-65
2024/03/26 10:36:59;;;;;;;0.70;0.70;;;;;;;15.44;33.40;96636.75;4963989;28;20077;-71
2024/03/26 10:39:28;;;;;;;0.70;0.70;;;;;;;14.66;33.03;96465.59;4945855;28;20067;-70
2024/03/26 10:41:55;;;;;;;0.70;0.70;;;;;;;15.53;33.21;96466.75;4940780;28;20058;-69
2024/03/26 10:44:21;;;;;;;0.70;0.70;;;;;;;16.28;32.30;96515.66;4965016;28;20066;-65
2024/03/26 10:46:47;;;;;;;0.70;0.70;;;;;;;16.60;31.12;96541.22;4964087;28;20086;-67
2024/03/26 10:49:13;;;;;;;0.77;0.77;;;;;;;17.44;31.69;96588.66;4947090;28;20548;-70
2024/03/26 10:51:40;;;;;;;0.80;0.80;;;;;;;17.13;30.99;96481.63;4953720;28;20057;-70
2024/03/26 10:54:06;;;;;;;0.80;0.80;;;;;;;18.17;31.04;96622.97;4979797;28;20138;-65
2024/03/26 10:56:33;;;;;;;0.80;0.80;;;;;;;17.66;30.32;96503.84;4964407;28;20441;-64
2024/03/26 10:59:00;;;;;;;0.70;0.70;;;;;;;17.39;31.32;96597.53;4949416;28;20082;-71
2024/03/26 11:01:28;;;;;;;0.80;0.80;;;;;;;17.93;30.87;96597.00;4952755;28;20054;-69
2024/03/26 11:03:56;;;;;;;0.80;0.80;;;;;;;17.64;29.71;96527.91;4965157;28;20058;-65
2024/03/26 11:06:22;;;;;;;0.80;0.80;;;;;;;16.66;30.80;96468.81;4962655;28;20059;-71
2024/03/26 11:08:56;;;;;;;0.73;0.73;;;;;;;16.54;31.40;96491.78;4933813;28;20062;-69
2024/03/26 11:11:22;;;;;;;0.80;0.80;;;;;;;17.39;30.92;96521.94;4949841;28;20783;-70
2024/03/26 11:13:56;;;;;;;0.80;0.80;;;;;;;18.19;30.40;96600.91;4961399;28;20137;-69
2024/03/26 11:16:41;;;;;;;0.80;0.80;;;;;;;17.76;30.04;96538.47;4961552;28;20055;-64
2024/03/26 11:19:24;;;;;;;0.80;0.80;;;;;;;16.35;31.53;96426.13;4946640;28;20230;-64
2024/03/26 11:21:53;;;;;;;0.80;0.80;;;;;;;17.40;31.22;96583.09;4955064;28;20058;-70
2024/03/26 11:24:32;;;;;;;0.80;0.80;;;;;;;17.41;30.21;96548.31;4964154;28;20701;-72
2024/03/26 11:27:00;;;;;;;0.80;0.80;;;;;;;16.83;30.68;96554.47;4947754;28;20051;-70
2024/03/26 11:29:27;;;;;;;0.80;0.80;;;;;;;16.61;31.62;96572.78;4943330;28;20094;-75
2024/03/26 11:31:53;;;;;;;0.70;0.70;;;;;;;15.90;30.91;96376.53;4945526;28;20066;-73
2024/03/26 11:34:23;;;;;;;0.70;0.70;;;;;;;17.24;31.35;96566.19;4961308;28;20411;-75
2024/03/26 11:36:53;;;;;;;0.73;0.73;;;;;;;16.89;31.88;96563.16;4944330;28;20051;-66